sensor_id;sensor_type;location;lat;lon;timestamp;P1;durP1;ratioP1;P2;durP2;ratioP2
54539;SDS011;40438;52.992;18.604;2023-04-24T00:00:09;11.65;;;7.65;;
54539;SDS011;40438;52.992;18.604;2023-04-24T00:02:35;14.82;;;8.27;;
54539;SDS011;40438;52.992;18.604;2023-04-24T00:05:03;12.20;;;7.95;;
54539;SDS011;40438;52.992;18.604;2023-04-24T00:07:29;13.68;;;8.48;;
54539;SDS011;40438;52.992;18.604;2023-04-24T00:09:55;17.10;;;8.73;;
54539;SDS011;40438;52.992;18.604;2023-04-24T00:12:21;14.48;;;7.82;;
54539;SDS011;40438;52.992;18.604;2023-04-24T00:14:47;13.95;;;8.57;;
54539;SDS011;40438;52.992;18.604;2023-04-24T00:17:13;13.80;;;8.57;;
54539;SDS011;40438;52.992;18.604;2023-04-24T00:19:38;14.60;;;8.50;;
54539;SDS011;40438;52.992;18.604;2023-04-24T00:22:06;16.67;;;8.07;;
54539;SDS011;40438;52.992;18.604;2023-04-24T00:24:31;17.40;;;9.00;;
54539;SDS011;40438;52.992;18.604;2023-04-24T00:26:57;14.73;;;7.80;;
54539;SDS011;40438;52.992;18.604;2023-04-24T00:29:23;15.20;;;8.23;;
54539;SDS011;40438;52.992;18.604;2023-04-24T00:31:49;17.02;;;8.82;;
54539;SDS011;40438;52.992;18.604;2023-04-24T00:34:15;13.30;;;7.65;;
54539;SDS011;40438;52.992;18.604;2023-04-24T00:36:40;14.73;;;8.05;;
54539;SDS011;40438;52.992;18.604;2023-04-24T00:39:07;16.98;;;8.75;;
54539;SDS011;40438;52.992;18.604;2023-04-24T00:41:33;14.50;;;8.10;;
54539;SDS011;40438;52.992;18.604;2023-04-24T00:43:59;15.13;;;8.50;;
54539;SDS011;40438;52.992;18.604;2023-04-24T00:46:25;18.17;;;8.20;;
54539;SDS011;40438;52.992;18.604;2023-04-24T00:48:51;13.07;;;7.93;;
54539;SDS011;40438;52.992;18.604;2023-04-24T00:51:17;15.52;;;8.80;;
54539;SDS011;40438;52.992;18.604;2023-04-24T00:53:43;13.65;;;7.45;;
54539;SDS011;40438;52.992;18.604;2023-04-24T00:56:10;14.45;;;7.82;;
54539;SDS011;40438;52.992;18.604;2023-04-24T00:58:36;16.50;;;8.35;;
54539;SDS011;40438;52.992;18.604;2023-04-24T01:01:02;15.15;;;8.70;;
54539;SDS011;40438;52.992;18.604;2023-04-24T01:03:29;14.43;;;8.30;;
54539;SDS011;40438;52.992;18.604;2023-04-24T01:05:55;17.77;;;9.40;;
54539;SDS011;40438;52.992;18.604;2023-04-24T01:08:21;14.52;;;8.05;;
54539;SDS011;40438;52.992;18.604;2023-04-24T01:10:48;16.95;;;8.85;;
54539;SDS011;40438;52.992;18.604;2023-04-24T01:13:19;12.88;;;7.82;;
54539;SDS011;40438;52.992;18.604;2023-04-24T01:15:45;14.48;;;8.93;;
54539;SDS011;40438;52.992;18.604;2023-04-24T01:18:11;16.55;;;8.82;;
54539;SDS011;40438;52.992;18.604;2023-04-24T01:20:37;15.98;;;8.95;;
54539;SDS011;40438;52.992;18.604;2023-04-24T01:23:06;17.48;;;9.82;;
54539;SDS011;40438;52.992;18.604;2023-04-24T01:25:32;16.10;;;9.63;;
54539;SDS011;40438;52.992;18.604;2023-04-24T01:27:59;14.10;;;8.75;;
54539;SDS011;40438;52.992;18.604;2023-04-24T01:30:25;14.57;;;9.27;;
54539;SDS011;40438;52.992;18.604;2023-04-24T01:32:51;15.95;;;9.52;;
54539;SDS011;40438;52.992;18.604;2023-04-24T01:35:17;16.10;;;10.18;;
54539;SDS011;40438;52.992;18.604;2023-04-24T01:37:43;15.98;;;8.68;;
54539;SDS011;40438;52.992;18.604;2023-04-24T01:40:11;13.88;;;9.00;;
54539;SDS011;40438;52.992;18.604;2023-04-24T01:42:36;18.10;;;9.10;;
54539;SDS011;40438;52.992;18.604;2023-04-24T01:45:03;15.20;;;9.20;;
54539;SDS011;40438;52.992;18.604;2023-04-24T01:47:30;18.50;;;8.98;;
54539;SDS011;40438;52.992;18.604;2023-04-24T01:49:56;16.10;;;9.48;;
54539;SDS011;40438;52.992;18.604;2023-04-24T01:52:22;16.98;;;8.23;;
54539;SDS011;40438;52.992;18.604;2023-04-24T01:54:48;14.90;;;9.13;;
54539;SDS011;40438;52.992;18.604;2023-04-24T01:57:17;16.17;;;9.05;;
54539;SDS011;40438;52.992;18.604;2023-04-24T01:59:43;15.18;;;9.55;;
54539;SDS011;40438;52.992;18.604;2023-04-24T02:02:09;18.92;;;9.10;;
54539;SDS011;40438;52.992;18.604;2023-04-24T02:04:35;19.10;;;8.95;;
54539;SDS011;40438;52.992;18.604;2023-04-24T02:07:01;16.42;;;9.75;;
54539;SDS011;40438;52.992;18.604;2023-04-24T02:09:26;16.05;;;8.98;;
54539;SDS011;40438;52.992;18.604;2023-04-24T02:11:52;13.07;;;8.27;;
54539;SDS011;40438;52.992;18.604;2023-04-24T02:14:19;15.65;;;8.85;;
54539;SDS011;40438;52.992;18.604;2023-04-24T02:16:45;16.85;;;9.25;;
54539;SDS011;40438;52.992;18.604;2023-04-24T02:19:11;13.82;;;8.93;;
54539;SDS011;40438;52.992;18.604;2023-04-24T02:21:37;16.77;;;8.80;;
54539;SDS011;40438;52.992;18.604;2023-04-24T02:24:03;15.02;;;8.63;;
54539;SDS011;40438;52.992;18.604;2023-04-24T02:26:28;13.77;;;8.05;;
54539;SDS011;40438;52.992;18.604;2023-04-24T02:28:54;17.75;;;8.73;;
54539;SDS011;40438;52.992;18.604;2023-04-24T02:31:21;21.23;;;8.57;;
54539;SDS011;40438;52.992;18.604;2023-04-24T02:33:47;17.63;;;8.75;;
54539;SDS011;40438;52.992;18.604;2023-04-24T02:36:13;16.48;;;9.07;;
54539;SDS011;40438;52.992;18.604;2023-04-24T02:38:39;14.30;;;8.55;;
54539;SDS011;40438;52.992;18.604;2023-04-24T02:41:05;15.77;;;8.27;;
54539;SDS011;40438;52.992;18.604;2023-04-24T02:43:31;13.80;;;8.50;;
54539;SDS011;40438;52.992;18.604;2023-04-24T02:45:57;15.68;;;8.77;;
54539;SDS011;40438;52.992;18.604;2023-04-24T02:48:24;18.95;;;9.00;;
54539;SDS011;40438;52.992;18.604;2023-04-24T02:50:50;14.07;;;8.25;;
54539;SDS011;40438;52.992;18.604;2023-04-24T02:53:16;12.90;;;8.30;;
54539;SDS011;40438;52.992;18.604;2023-04-24T02:55:42;13.27;;;8.45;;
54539;SDS011;40438;52.992;18.604;2023-04-24T02:58:07;14.95;;;8.57;;
54539;SDS011;40438;52.992;18.604;2023-04-24T03:00:33;14.82;;;7.95;;
54539;SDS011;40438;52.992;18.604;2023-04-24T03:02:59;14.50;;;8.60;;
54539;SDS011;40438;52.992;18.604;2023-04-24T03:05:26;18.83;;;9.68;;
54539;SDS011;40438;52.992;18.604;2023-04-24T03:07:52;18.38;;;9.25;;
54539;SDS011;40438;52.992;18.604;2023-04-24T03:10:20;18.00;;;8.80;;
54539;SDS011;40438;52.992;18.604;2023-04-24T03:12:47;19.70;;;8.93;;
54539;SDS011;40438;52.992;18.604;2023-04-24T03:15:13;16.83;;;7.97;;
54539;SDS011;40438;52.992;18.604;2023-04-24T03:17:39;16.77;;;8.82;;
54539;SDS011;40438;52.992;18.604;2023-04-24T03:20:05;16.45;;;8.35;;
54539;SDS011;40438;52.992;18.604;2023-04-24T03:22:34;21.85;;;9.68;;
54539;SDS011;40438;52.992;18.604;2023-04-24T03:25:00;13.52;;;7.72;;
54539;SDS011;40438;52.992;18.604;2023-04-24T03:27:27;14.23;;;8.10;;
54539;SDS011;40438;52.992;18.604;2023-04-24T03:29:55;13.02;;;7.55;;
54539;SDS011;40438;52.992;18.604;2023-04-24T03:32:25;16.67;;;9.05;;
54539;SDS011;40438;52.992;18.604;2023-04-24T03:34:51;15.38;;;8.75;;
54539;SDS011;40438;52.992;18.604;2023-04-24T03:37:17;15.25;;;8.50;;
54539;SDS011;40438;52.992;18.604;2023-04-24T03:39:51;16.98;;;8.32;;
54539;SDS011;40438;52.992;18.604;2023-04-24T03:42:21;14.75;;;8.57;;
54539;SDS011;40438;52.992;18.604;2023-04-24T03:44:54;17.80;;;9.20;;
54539;SDS011;40438;52.992;18.604;2023-04-24T03:47:23;17.55;;;9.63;;
54539;SDS011;40438;52.992;18.604;2023-04-24T03:49:51;15.25;;;8.68;;
54539;SDS011;40438;52.992;18.604;2023-04-24T03:52:17;19.75;;;8.68;;
54539;SDS011;40438;52.992;18.604;2023-04-24T03:54:42;14.68;;;8.52;;
54539;SDS011;40438;52.992;18.604;2023-04-24T03:57:11;15.63;;;8.50;;
54539;SDS011;40438;52.992;18.604;2023-04-24T03:59:44;14.20;;;8.20;;
54539;SDS011;40438;52.992;18.604;2023-04-24T04:02:16;17.77;;;8.57;;
54539;SDS011;40438;52.992;18.604;2023-04-24T04:04:42;16.17;;;8.88;;
54539;SDS011;40438;52.992;18.604;2023-04-24T04:07:08;15.07;;;8.30;;
54539;SDS011;40438;52.992;18.604;2023-04-24T04:09:34;19.92;;;8.57;;
54539;SDS011;40438;52.992;18.604;2023-04-24T04:12:00;17.02;;;8.27;;
54539;SDS011;40438;52.992;18.604;2023-04-24T04:14:27;18.27;;;8.90;;
54539;SDS011;40438;52.992;18.604;2023-04-24T04:16:53;15.27;;;9.07;;
54539;SDS011;40438;52.992;18.604;2023-04-24T04:19:19;22.05;;;8.82;;
54539;SDS011;40438;52.992;18.604;2023-04-24T04:21:45;16.45;;;9.15;;
54539;SDS011;40438;52.992;18.604;2023-04-24T04:24:23;18.77;;;9.15;;
54539;SDS011;40438;52.992;18.604;2023-04-24T04:26:51;18.27;;;8.90;;
54539;SDS011;40438;52.992;18.604;2023-04-24T04:29:28;19.38;;;9.10;;
54539;SDS011;40438;52.992;18.604;2023-04-24T04:31:54;16.27;;;8.27;;
54539;SDS011;40438;52.992;18.604;2023-04-24T04:34:20;19.05;;;8.43;;
54539;SDS011;40438;52.992;18.604;2023-04-24T04:36:46;14.40;;;8.70;;
54539;SDS011;40438;52.992;18.604;2023-04-24T04:39:32;18.67;;;10.40;;
54539;SDS011;40438;52.992;18.604;2023-04-24T04:42:01;18.17;;;10.52;;
54539;SDS011;40438;52.992;18.604;2023-04-24T04:44:35;23.17;;;11.18;;
54539;SDS011;40438;52.992;18.604;2023-04-24T04:47:01;23.33;;;11.35;;
54539;SDS011;40438;52.992;18.604;2023-04-24T04:49:31;20.20;;;10.30;;
54539;SDS011;40438;52.992;18.604;2023-04-24T04:51:57;18.10;;;9.45;;
54539;SDS011;40438;52.992;18.604;2023-04-24T04:54:24;16.45;;;8.85;;
54539;SDS011;40438;52.992;18.604;2023-04-24T04:56:50;17.17;;;8.43;;
54539;SDS011;40438;52.992;18.604;2023-04-24T04:59:16;15.95;;;8.80;;
54539;SDS011;40438;52.992;18.604;2023-04-24T05:01:45;13.52;;;8.23;;
54539;SDS011;40438;52.992;18.604;2023-04-24T05:04:15;14.07;;;8.27;;
54539;SDS011;40438;52.992;18.604;2023-04-24T05:06:41;22.00;;;10.00;;
54539;SDS011;40438;52.992;18.604;2023-04-24T05:09:07;18.35;;;9.70;;
54539;SDS011;40438;52.992;18.604;2023-04-24T05:11:53;15.98;;;8.95;;
54539;SDS011;40438;52.992;18.604;2023-04-24T05:14:21;18.10;;;8.88;;
54539;SDS011;40438;52.992;18.604;2023-04-24T05:16:49;14.68;;;7.97;;
54539;SDS011;40438;52.992;18.604;2023-04-24T05:19:18;15.65;;;8.15;;
54539;SDS011;40438;52.992;18.604;2023-04-24T05:21:45;13.80;;;7.90;;
54539;SDS011;40438;52.992;18.604;2023-04-24T05:24:11;16.55;;;8.40;;
54539;SDS011;40438;52.992;18.604;2023-04-24T05:26:55;13.63;;;7.72;;
54539;SDS011;40438;52.992;18.604;2023-04-24T05:29:26;13.85;;;7.82;;
54539;SDS011;40438;52.992;18.604;2023-04-24T05:31:54;14.15;;;7.88;;
54539;SDS011;40438;52.992;18.604;2023-04-24T05:34:20;15.05;;;7.68;;
54539;SDS011;40438;52.992;18.604;2023-04-24T05:36:49;16.98;;;8.70;;
54539;SDS011;40438;52.992;18.604;2023-04-24T05:39:15;17.63;;;8.40;;
54539;SDS011;40438;52.992;18.604;2023-04-24T05:41:41;15.45;;;8.18;;
54539;SDS011;40438;52.992;18.604;2023-04-24T05:44:08;13.75;;;7.28;;
54539;SDS011;40438;52.992;18.604;2023-04-24T05:46:33;16.77;;;7.93;;
54539;SDS011;40438;52.992;18.604;2023-04-24T05:49:01;14.40;;;7.35;;
54539;SDS011;40438;52.992;18.604;2023-04-24T05:51:26;14.10;;;8.35;;
54539;SDS011;40438;52.992;18.604;2023-04-24T05:53:52;13.32;;;7.32;;
54539;SDS011;40438;52.992;18.604;2023-04-24T05:56:18;15.00;;;7.53;;
54539;SDS011;40438;52.992;18.604;2023-04-24T05:58:44;15.98;;;7.82;;
54539;SDS011;40438;52.992;18.604;2023-04-24T06:01:10;12.27;;;6.93;;
54539;SDS011;40438;52.992;18.604;2023-04-24T06:03:37;11.38;;;7.25;;
54539;SDS011;40438;52.992;18.604;2023-04-24T06:06:05;11.00;;;7.15;;
54539;SDS011;40438;52.992;18.604;2023-04-24T06:08:32;17.95;;;7.78;;
54539;SDS011;40438;52.992;18.604;2023-04-24T06:10:58;14.40;;;6.90;;
54539;SDS011;40438;52.992;18.604;2023-04-24T06:13:24;16.98;;;7.10;;
54539;SDS011;40438;52.992;18.604;2023-04-24T06:16:10;14.18;;;6.85;;
54539;SDS011;40438;52.992;18.604;2023-04-24T06:18:39;12.20;;;7.03;;
54539;SDS011;40438;52.992;18.604;2023-04-24T06:21:06;11.93;;;7.85;;
54539;SDS011;40438;52.992;18.604;2023-04-24T06:23:32;10.65;;;6.47;;
54539;SDS011;40438;52.992;18.604;2023-04-24T06:25:58;16.60;;;7.00;;
54539;SDS011;40438;52.992;18.604;2023-04-24T06:28:23;19.35;;;6.63;;
54539;SDS011;40438;52.992;18.604;2023-04-24T06:30:51;10.88;;;6.28;;
54539;SDS011;40438;52.992;18.604;2023-04-24T06:33:17;15.57;;;6.07;;
54539;SDS011;40438;52.992;18.604;2023-04-24T06:35:42;11.90;;;5.85;;
54539;SDS011;40438;52.992;18.604;2023-04-24T06:38:10;11.25;;;6.35;;
54539;SDS011;40438;52.992;18.604;2023-04-24T06:40:35;9.75;;;5.68;;
54539;SDS011;40438;52.992;18.604;2023-04-24T06:43:01;10.00;;;5.60;;
54539;SDS011;40438;52.992;18.604;2023-04-24T06:45:27;9.27;;;5.90;;
54539;SDS011;40438;52.992;18.604;2023-04-24T06:47:53;14.75;;;6.63;;
54539;SDS011;40438;52.992;18.604;2023-04-24T06:50:19;12.40;;;6.30;;
54539;SDS011;40438;52.992;18.604;2023-04-24T06:52:45;10.45;;;6.10;;
54539;SDS011;40438;52.992;18.604;2023-04-24T06:55:12;13.48;;;6.78;;
54539;SDS011;40438;52.992;18.604;2023-04-24T06:57:38;14.27;;;7.70;;
54539;SDS011;40438;52.992;18.604;2023-04-24T07:00:04;13.38;;;6.25;;
54539;SDS011;40438;52.992;18.604;2023-04-24T07:02:30;10.38;;;5.90;;
54539;SDS011;40438;52.992;18.604;2023-04-24T07:04:56;11.02;;;5.85;;
54539;SDS011;40438;52.992;18.604;2023-04-24T07:07:22;9.38;;;6.18;;
54539;SDS011;40438;52.992;18.604;2023-04-24T07:09:48;10.52;;;6.30;;
54539;SDS011;40438;52.992;18.604;2023-04-24T07:12:15;10.07;;;5.35;;
54539;SDS011;40438;52.992;18.604;2023-04-24T07:14:40;9.60;;;6.15;;
54539;SDS011;40438;52.992;18.604;2023-04-24T07:17:06;8.85;;;5.20;;
54539;SDS011;40438;52.992;18.604;2023-04-24T07:19:32;9.38;;;6.30;;
54539;SDS011;40438;52.992;18.604;2023-04-24T07:21:59;8.52;;;5.65;;
54539;SDS011;40438;52.992;18.604;2023-04-24T07:24:24;8.35;;;5.20;;
54539;SDS011;40438;52.992;18.604;2023-04-24T07:26:50;8.52;;;5.15;;
54539;SDS011;40438;52.992;18.604;2023-04-24T07:29:18;10.50;;;5.80;;
54539;SDS011;40438;52.992;18.604;2023-04-24T07:31:44;7.80;;;5.40;;
54539;SDS011;40438;52.992;18.604;2023-04-24T07:34:09;6.63;;;4.68;;
54539;SDS011;40438;52.992;18.604;2023-04-24T07:36:35;5.97;;;4.20;;
54539;SDS011;40438;52.992;18.604;2023-04-24T07:39:01;7.57;;;5.05;;
54539;SDS011;40438;52.992;18.604;2023-04-24T07:41:27;8.32;;;4.38;;
54539;SDS011;40438;52.992;18.604;2023-04-24T07:43:53;7.65;;;4.60;;
54539;SDS011;40438;52.992;18.604;2023-04-24T07:46:20;9.30;;;4.40;;
54539;SDS011;40438;52.992;18.604;2023-04-24T07:48:46;7.53;;;4.28;;
54539;SDS011;40438;52.992;18.604;2023-04-24T07:51:12;6.05;;;4.03;;
54539;SDS011;40438;52.992;18.604;2023-04-24T07:53:38;6.22;;;4.10;;
54539;SDS011;40438;52.992;18.604;2023-04-24T07:56:04;9.30;;;3.80;;
54539;SDS011;40438;52.992;18.604;2023-04-24T07:58:30;6.45;;;3.58;;
54539;SDS011;40438;52.992;18.604;2023-04-24T08:00:56;6.50;;;4.07;;
54539;SDS011;40438;52.992;18.604;2023-04-24T08:03:23;5.45;;;3.30;;
54539;SDS011;40438;52.992;18.604;2023-04-24T08:05:49;5.53;;;3.90;;
54539;SDS011;40438;52.992;18.604;2023-04-24T08:08:14;5.25;;;3.60;;
54539;SDS011;40438;52.992;18.604;2023-04-24T08:10:40;4.82;;;3.75;;
54539;SDS011;40438;52.992;18.604;2023-04-24T08:13:06;4.82;;;4.00;;
54539;SDS011;40438;52.992;18.604;2023-04-24T08:15:32;8.63;;;4.45;;
54539;SDS011;40438;52.992;18.604;2023-04-24T08:17:57;7.78;;;3.70;;
54539;SDS011;40438;52.992;18.604;2023-04-24T08:20:25;6.13;;;4.22;;
54539;SDS011;40438;52.992;18.604;2023-04-24T08:22:51;5.30;;;3.70;;
54539;SDS011;40438;52.992;18.604;2023-04-24T08:25:16;4.38;;;3.28;;
54539;SDS011;40438;52.992;18.604;2023-04-24T08:27:42;9.18;;;3.65;;
54539;SDS011;40438;52.992;18.604;2023-04-24T08:30:08;6.97;;;3.75;;
54539;SDS011;40438;52.992;18.604;2023-04-24T08:32:35;5.97;;;4.03;;
54539;SDS011;40438;52.992;18.604;2023-04-24T08:35:01;5.93;;;3.70;;
54539;SDS011;40438;52.992;18.604;2023-04-24T08:37:29;6.10;;;4.03;;
54539;SDS011;40438;52.992;18.604;2023-04-24T08:39:55;4.88;;;3.00;;
54539;SDS011;40438;52.992;18.604;2023-04-24T08:42:21;3.70;;;2.75;;
54539;SDS011;40438;52.992;18.604;2023-04-24T08:44:48;5.95;;;3.45;;
54539;SDS011;40438;52.992;18.604;2023-04-24T08:47:15;3.92;;;2.97;;
54539;SDS011;40438;52.992;18.604;2023-04-24T08:49:41;5.97;;;3.20;;
54539;SDS011;40438;52.992;18.604;2023-04-24T08:52:07;4.82;;;3.38;;
54539;SDS011;40438;52.992;18.604;2023-04-24T08:54:35;5.20;;;3.50;;
54539;SDS011;40438;52.992;18.604;2023-04-24T08:57:02;8.45;;;3.45;;
54539;SDS011;40438;52.992;18.604;2023-04-24T08:59:28;5.32;;;2.95;;
54539;SDS011;40438;52.992;18.604;2023-04-24T09:01:54;4.15;;;2.97;;
54539;SDS011;40438;52.992;18.604;2023-04-24T09:04:20;5.38;;;3.05;;
54539;SDS011;40438;52.992;18.604;2023-04-24T09:06:47;5.70;;;2.92;;
54539;SDS011;40438;52.992;18.604;2023-04-24T09:09:13;4.78;;;3.00;;
54539;SDS011;40438;52.992;18.604;2023-04-24T09:11:43;3.33;;;2.90;;
54539;SDS011;40438;52.992;18.604;2023-04-24T09:14:10;3.75;;;2.92;;
54539;SDS011;40438;52.992;18.604;2023-04-24T09:16:35;3.38;;;2.85;;
54539;SDS011;40438;52.992;18.604;2023-04-24T09:19:01;6.57;;;3.55;;
54539;SDS011;40438;52.992;18.604;2023-04-24T09:21:31;3.85;;;3.17;;
54539;SDS011;40438;52.992;18.604;2023-04-24T09:23:57;6.13;;;4.03;;
54539;SDS011;40438;52.992;18.604;2023-04-24T09:26:23;4.97;;;3.80;;
54539;SDS011;40438;52.992;18.604;2023-04-24T09:28:51;7.82;;;4.00;;
54539;SDS011;40438;52.992;18.604;2023-04-24T09:31:19;6.18;;;4.07;;
54539;SDS011;40438;52.992;18.604;2023-04-24T09:33:53;6.97;;;4.00;;
54539;SDS011;40438;52.992;18.604;2023-04-24T09:36:19;6.72;;;4.57;;
54539;SDS011;40438;52.992;18.604;2023-04-24T09:38:53;6.45;;;4.15;;
54539;SDS011;40438;52.992;18.604;2023-04-24T09:41:22;7.50;;;4.22;;
54539;SDS011;40438;52.992;18.604;2023-04-24T09:43:48;5.82;;;4.10;;
54539;SDS011;40438;52.992;18.604;2023-04-24T09:46:15;9.48;;;4.72;;
54539;SDS011;40438;52.992;18.604;2023-04-24T09:48:44;7.72;;;4.70;;
54539;SDS011;40438;52.992;18.604;2023-04-24T09:51:09;5.57;;;3.67;;
54539;SDS011;40438;52.992;18.604;2023-04-24T09:53:35;6.28;;;4.18;;
54539;SDS011;40438;52.992;18.604;2023-04-24T09:56:06;7.68;;;4.25;;
54539;SDS011;40438;52.992;18.604;2023-04-24T09:58:34;6.10;;;4.40;;
54539;SDS011;40438;52.992;18.604;2023-04-24T10:01:00;6.57;;;4.05;;
54539;SDS011;40438;52.992;18.604;2023-04-24T10:03:29;10.18;;;5.00;;
54539;SDS011;40438;52.992;18.604;2023-04-24T10:05:58;7.00;;;4.35;;
54539;SDS011;40438;52.992;18.604;2023-04-24T10:08:24;6.60;;;4.57;;
54539;SDS011;40438;52.992;18.604;2023-04-24T10:10:50;8.23;;;4.55;;
54539;SDS011;40438;52.992;18.604;2023-04-24T10:13:15;8.23;;;4.97;;
54539;SDS011;40438;52.992;18.604;2023-04-24T10:15:41;6.75;;;4.65;;
54539;SDS011;40438;52.992;18.604;2023-04-24T10:18:08;7.38;;;4.63;;
54539;SDS011;40438;52.992;18.604;2023-04-24T10:20:36;8.25;;;5.13;;
54539;SDS011;40438;52.992;18.604;2023-04-24T10:23:03;7.75;;;4.38;;
54539;SDS011;40438;52.992;18.604;2023-04-24T10:25:29;6.97;;;4.38;;
54539;SDS011;40438;52.992;18.604;2023-04-24T10:27:56;7.78;;;4.68;;
54539;SDS011;40438;52.992;18.604;2023-04-24T10:30:23;7.28;;;5.07;;
54539;SDS011;40438;52.992;18.604;2023-04-24T10:32:49;6.90;;;4.70;;
54539;SDS011;40438;52.992;18.604;2023-04-24T10:35:15;8.35;;;5.65;;
54539;SDS011;40438;52.992;18.604;2023-04-24T10:37:45;6.57;;;4.60;;
54539;SDS011;40438;52.992;18.604;2023-04-24T10:40:16;6.80;;;4.90;;
54539;SDS011;40438;52.992;18.604;2023-04-24T10:42:43;10.10;;;5.18;;
54539;SDS011;40438;52.992;18.604;2023-04-24T10:45:16;9.25;;;5.32;;
54539;SDS011;40438;52.992;18.604;2023-04-24T10:47:42;13.80;;;4.95;;
54539;SDS011;40438;52.992;18.604;2023-04-24T10:50:08;8.70;;;5.22;;
54539;SDS011;40438;52.992;18.604;2023-04-24T10:52:45;8.50;;;5.32;;
54539;SDS011;40438;52.992;18.604;2023-04-24T10:55:12;7.43;;;5.03;;
54539;SDS011;40438;52.992;18.604;2023-04-24T10:57:38;7.97;;;4.88;;
54539;SDS011;40438;52.992;18.604;2023-04-24T11:00:13;6.00;;;4.82;;
54539;SDS011;40438;52.992;18.604;2023-04-24T11:02:40;6.53;;;4.70;;
54539;SDS011;40438;52.992;18.604;2023-04-24T11:05:06;8.02;;;5.47;;
54539;SDS011;40438;52.992;18.604;2023-04-24T11:10:29;9.60;;;5.40;;
54539;SDS011;40438;52.992;18.604;2023-04-24T11:12:55;6.43;;;4.90;;
54539;SDS011;40438;52.992;18.604;2023-04-24T11:15:21;7.20;;;5.25;;
54539;SDS011;40438;52.992;18.604;2023-04-24T11:17:47;7.75;;;4.90;;
54539;SDS011;40438;52.992;18.604;2023-04-24T11:20:17;7.00;;;5.07;;
54539;SDS011;40438;52.992;18.604;2023-04-24T11:22:43;7.85;;;4.82;;
54539;SDS011;40438;52.992;18.604;2023-04-24T11:25:09;6.43;;;5.13;;
54539;SDS011;40438;52.992;18.604;2023-04-24T11:27:39;7.55;;;5.32;;
54539;SDS011;40438;52.992;18.604;2023-04-24T11:30:06;7.18;;;4.70;;
54539;SDS011;40438;52.992;18.604;2023-04-24T11:32:34;8.27;;;4.78;;
54539;SDS011;40438;52.992;18.604;2023-04-24T11:35:01;7.28;;;4.70;;
54539;SDS011;40438;52.992;18.604;2023-04-24T11:37:29;7.63;;;4.43;;
54539;SDS011;40438;52.992;18.604;2023-04-24T11:39:59;6.78;;;4.70;;
54539;SDS011;40438;52.992;18.604;2023-04-24T11:42:25;8.50;;;4.90;;
54539;SDS011;40438;52.992;18.604;2023-04-24T11:44:53;6.20;;;4.28;;
54539;SDS011;40438;52.992;18.604;2023-04-24T11:47:19;7.53;;;4.80;;
54539;SDS011;40438;52.992;18.604;2023-04-24T11:49:45;9.05;;;5.30;;
54539;SDS011;40438;52.992;18.604;2023-04-24T11:52:11;6.15;;;4.47;;
54539;SDS011;40438;52.992;18.604;2023-04-24T11:54:47;7.75;;;4.60;;
54539;SDS011;40438;52.992;18.604;2023-04-24T11:59:39;6.63;;;3.95;;
54539;SDS011;40438;52.992;18.604;2023-04-24T12:02:06;10.25;;;4.70;;
54539;SDS011;40438;52.992;18.604;2023-04-24T12:04:38;6.55;;;4.50;;
54539;SDS011;40438;52.992;18.604;2023-04-24T12:07:05;7.22;;;4.53;;
54539;SDS011;40438;52.992;18.604;2023-04-24T12:09:39;5.85;;;4.40;;
54539;SDS011;40438;52.992;18.604;2023-04-24T12:12:06;6.90;;;4.55;;
54539;SDS011;40438;52.992;18.604;2023-04-24T12:14:32;8.27;;;5.18;;
54539;SDS011;40438;52.992;18.604;2023-04-24T12:16:57;6.65;;;4.97;;
54539;SDS011;40438;52.992;18.604;2023-04-24T12:19:25;7.57;;;4.68;;
54539;SDS011;40438;52.992;18.604;2023-04-24T12:22:00;8.25;;;5.13;;
54539;SDS011;40438;52.992;18.604;2023-04-24T12:24:27;7.53;;;5.35;;
54539;SDS011;40438;52.992;18.604;2023-04-24T12:26:53;8.00;;;5.05;;
54539;SDS011;40438;52.992;18.604;2023-04-24T12:29:19;7.47;;;5.50;;
54539;SDS011;40438;52.992;18.604;2023-04-24T12:31:45;11.55;;;6.25;;
54539;SDS011;40438;52.992;18.604;2023-04-24T12:34:17;10.18;;;6.03;;
54539;SDS011;40438;52.992;18.604;2023-04-24T12:36:44;10.15;;;5.93;;
54539;SDS011;40438;52.992;18.604;2023-04-24T12:39:14;11.52;;;6.22;;
54539;SDS011;40438;52.992;18.604;2023-04-24T12:41:48;10.52;;;6.22;;
54539;SDS011;40438;52.992;18.604;2023-04-24T12:44:15;11.80;;;6.35;;
54539;SDS011;40438;52.992;18.604;2023-04-24T12:46:41;11.75;;;6.65;;
54539;SDS011;40438;52.992;18.604;2023-04-24T12:49:07;10.95;;;6.07;;
54539;SDS011;40438;52.992;18.604;2023-04-24T12:51:33;8.18;;;5.10;;
54539;SDS011;40438;52.992;18.604;2023-04-24T12:54:00;9.75;;;5.85;;
54539;SDS011;40438;52.992;18.604;2023-04-24T12:56:26;12.05;;;6.15;;
54539;SDS011;40438;52.992;18.604;2023-04-24T12:58:51;7.97;;;5.70;;
54539;SDS011;40438;52.992;18.604;2023-04-24T13:01:17;6.30;;;5.05;;
54539;SDS011;40438;52.992;18.604;2023-04-24T13:03:43;7.57;;;5.00;;
54539;SDS011;40438;52.992;18.604;2023-04-24T13:06:09;8.80;;;6.03;;
54539;SDS011;40438;52.992;18.604;2023-04-24T13:08:35;8.60;;;5.97;;
54539;SDS011;40438;52.992;18.604;2023-04-24T13:11:02;12.73;;;5.32;;
54539;SDS011;40438;52.992;18.604;2023-04-24T13:13:28;10.55;;;5.88;;
54539;SDS011;40438;52.992;18.604;2023-04-24T13:15:53;9.50;;;6.07;;
54539;SDS011;40438;52.992;18.604;2023-04-24T13:18:19;8.18;;;5.47;;
54539;SDS011;40438;52.992;18.604;2023-04-24T13:20:45;11.65;;;6.03;;
54539;SDS011;40438;52.992;18.604;2023-04-24T13:23:11;7.80;;;5.57;;
54539;SDS011;40438;52.992;18.604;2023-04-24T13:25:37;7.80;;;6.25;;
54539;SDS011;40438;52.992;18.604;2023-04-24T13:28:04;8.88;;;5.68;;
54539;SDS011;40438;52.992;18.604;2023-04-24T13:30:30;8.02;;;6.18;;
54539;SDS011;40438;52.992;18.604;2023-04-24T13:32:56;8.55;;;5.97;;
54539;SDS011;40438;52.992;18.604;2023-04-24T13:35:22;9.80;;;6.55;;
54539;SDS011;40438;52.992;18.604;2023-04-24T13:37:47;14.13;;;6.50;;
54539;SDS011;40438;52.992;18.604;2023-04-24T13:40:13;8.07;;;5.90;;
54539;SDS011;40438;52.992;18.604;2023-04-24T13:42:39;9.27;;;6.35;;
54539;SDS011;40438;52.992;18.604;2023-04-24T13:45:07;8.57;;;6.53;;
54539;SDS011;40438;52.992;18.604;2023-04-24T13:47:34;10.82;;;5.82;;
54539;SDS011;40438;52.992;18.604;2023-04-24T13:50:00;8.75;;;5.80;;
54539;SDS011;40438;52.992;18.604;2023-04-24T13:52:25;6.15;;;5.22;;
54539;SDS011;40438;52.992;18.604;2023-04-24T13:54:51;7.80;;;5.85;;
54539;SDS011;40438;52.992;18.604;2023-04-24T13:57:17;7.63;;;5.55;;
54539;SDS011;40438;52.992;18.604;2023-04-24T13:59:43;8.77;;;5.60;;
54539;SDS011;40438;52.992;18.604;2023-04-24T14:02:10;10.48;;;5.72;;
54539;SDS011;40438;52.992;18.604;2023-04-24T14:04:36;7.65;;;6.00;;
54539;SDS011;40438;52.992;18.604;2023-04-24T14:07:02;9.07;;;5.93;;
54539;SDS011;40438;52.992;18.604;2023-04-24T14:09:28;8.57;;;5.57;;
54539;SDS011;40438;52.992;18.604;2023-04-24T14:11:53;10.27;;;6.38;;
54539;SDS011;40438;52.992;18.604;2023-04-24T14:14:19;8.40;;;5.80;;
54539;SDS011;40438;52.992;18.604;2023-04-24T14:16:45;10.20;;;6.00;;
54539;SDS011;40438;52.992;18.604;2023-04-24T14:19:12;12.73;;;5.63;;
54539;SDS011;40438;52.992;18.604;2023-04-24T14:21:38;10.77;;;5.88;;
54539;SDS011;40438;52.992;18.604;2023-04-24T14:24:04;9.02;;;5.47;;
54539;SDS011;40438;52.992;18.604;2023-04-24T14:26:29;6.18;;;4.85;;
54539;SDS011;40438;52.992;18.604;2023-04-24T14:28:55;6.75;;;4.90;;